РПИ Москва

Региональный центр Единой системы организации воздушного движения VATSIM Москва отвечает за полеты воздушных судов над большей частью территории центральной России на общей площади более 700 тысяч квадратных километров – от Рыбинского водохранилища до Воронежа и Белгорода с севера на юг и от границы с Беларусью до Нижнего Новгорода с запада на восток.

Ежедневно в зоне ответственности Московского центра выполняются тысячи полетов, в том числе множество международных транзитных рейсов.

Общая протяженность воздушных трасс составляет более 35000 км, а количество различных аэродромов гражданской и ведомственной авиации насчитывает более 100.

Московский узловой диспетчерский район (МУДР), также находящийся на территории регионального центра, включает в себя три крупнейших аэропорта России – московские Шереметьево, Внуково и Домодедово.

Это самое сложное и загруженное воздушное пространство России и СНГ. Московские аэропорты имеют схемы Point Merge System, упрощающие построение очередности захода на посадку, а наличие большого количество запретных зон и зон ограничений полетов требует от диспетчеров высокого уровня подготовки.

В реальной жизни за обеспечение безопасности полетов на этой огромной территории несут ответственность 27 секторов районного диспетчерского центра и 22 сектора Подхода и Круга аэроузлового диспетчерского центра. На вышках дежурят диспетчеры 11 аэродромных диспетчерских центров, управляющие самолетами на взлете и посадке.

В VATSIM мы также имеем возможность разъединять при необходимости различные сектора.

Используйте интерактивную карту по ссылке в ваших полетах, если видите в работе несколько позиций Москва-Контроль.

С 2020 года западная часть территории России, в том числе Москва, перешла на выполнение полетов на высотах в футах по давлению QNH. В МУДР установлена единая высота перехода для всех аэродромов 10000 футов, а эшелон перехода меняется от FL110 до FL130 в зависимости от QNH аэродрома Внуково, как самого высокорасположенного.

Помимо аэропортов «московской тройки», в МУДР находятся аэродромы государственной и экспериментальной авиации, такие как Остафьево, Раменское, Чкаловский.

Малая авиация выполняет полеты с бесчисленного множества аэродромов и посадочных площадок. Многие из них хорошо реализованы. На нашей карте вы найдете ссылки на сценарии для различных симуляторов.

Для симулятора X-Plane 11 команда x-flight подготовила прекрасную фотоподложку, покрывающую почти весь МУДР. Найти ее вы можете по ссылке.

Для любителей симуляторов от Lockheed Martin и Microsoft существуют также дополнения Moscow City X для Prepar3D всех версий и Moscow Landmarks для MSFS.

В районе ответственности регионального центра находятся еще восемь международных аэропортов: Нижний Новгород, Воронеж, Белгород, Ярославль, Брянск, Калуга, Курск и Липецк.

Лого Москва
Руководство

Ivan Skatov

Начальник РегЦ ЕС ОрВД (Москва)

Ilya Pyankov

Начальник АузДЦ ЕС ОрВД (Москва)

Nick Smirnov

Ивент-менеджер
Контакты

Инструкторы РПИ
Alexander Mikhin * (Controller)
Alexander Petrenko (Instructor)
Alexey Dobronravov (Instructor)
Anton Myglan * (Unknown)
Artem Smorchkov (Instructor)
Dmitry Markus (Instructor)
Ilya Pyankov (Instructor)
Ivan Buev (Instructor)
Ivan Skatov (Instructor)
Matvey Safyannikov (Instructor)
Maxim Tsygankov (Instructor)
Nick Smirnov (Instructor)
Yulia Goryacheva (Instructor)
Входит в состав
Западная Россия

Диспетчеры РПИ

Диспетчер Рейтинг Допуски *
Alexander Mikhin Controller UUWV_CTR
Alexander Petrenko Instructor UUWV_CTR
Alexey Dobronravov Instructor UUWV_CTR
Artem Morozov Controller UUWV_CTR
Artem Smorchkov Instructor UUWV_CTR
Dmitry Markus Instructor UUWV_CTR
George Kalandadze Controller UUWV_CTR
Ivan Buev Instructor UUWV_CTR
Ivan Skatov Instructor UUWV_CTR
Masha Stanchenko Controller UUWV_CTR
Maxim Finashko Controller UUWV_CTR
Maxim Tsygankov Instructor UUWV_CTR
Michael Loyuk Controller UUWV_CTR
Nick Smirnov Instructor UUWV_CTR
Robert Farber Controller UUWV_CTR
Sergey Kovalenko Controller UUWV_CTR
Vladimir Anisimov Senior Controller UUWV_CTR
Vyacheslav Neklyudov Controller UUWV_CTR
Yulia Goryacheva Instructor UUWV_CTR
Yury Koryagin Instructor UUWV_CTR
Aleksey Podlesny Student UUEE_S_GND, UUEE_N_GND, UUEE_GND
Alexander Ryabchuk Student UUEE_GND, UUEE_N_GND, UUEE_S_GND
Alexsey Gorbunov Unknown UUDD_GND
Andrey Makarov Student UUWW_GND
Andrey Timofeev Student UUDD_GND
Anna Pukhlyakova Student UUWW_GND
Anton Beshenov Student UUEE_S_GND, UUEE_N_GND, UUEE_GND
Artem Alexeev Student UUEE_TWR*, UUEE_S_GND, UUEE_N_GND, UUEE_GND, UUEE_N_TWR*, UUEE_S_TWR*
Artem Kalashnikov Student UUWW_GND
Artem Pustovoi Student 2 UUWW_APP*, UUWW_F_APP*, UUWW_TWR, UUWW_DEP*
Dmitrii Terekhov Student UUWW_GND
Egor Goriachev Student 2 UUDD_TWR, UUEE_TWR, UUEE_N_TWR, UUEE_S_TWR, UUWW_TWR, UUWW_DEP*, UUWW_F_APP*, UUWW_APP*
Egor Petrov Student UUDD_GND
Evgeniy Emelynov Student UUEE_S_GND, UUEE_GND, UUEE_N_GND
Gleb Ishmuratov Student UUDD_GND
Gleb Smolkov Student 2 UUEE_APP*, UUEE_F_APP*, UUEE_DEP*, UUEE_S_TWR, UUEE_N_TWR, UUEE_TWR
Ivan Baranov Student UUEE_TWR*, UUEE_N_TWR*, UUEE_S_TWR*, UUEE_S_GND, UUEE_N_GND, UUEE_GND
Ivan Piskovsky Unknown UUWW_GND
Kirill Belskiy Student UUEE_N_TWR*, UUEE_TWR*, UUEE_S_TWR*, UUEE_N_GND, UUEE_S_GND, UUEE_GND
Kirill Korchagin Student UUWW_GND
Kirill Kudryavtsev Student 2 UUWW_TWR
Kseniia Dedukh Unknown UUWW_DEP, UUWW_F_APP, UUWW_APP
Maksim Otto Controller UUDD_APP, UUDD_F_APP, UUDD_DEP, UUEE_F_APP, UUEE_DEP, UUEE_APP, UUWW_DEP, UUWW_F_APP, UUWW_APP
Maxim Grechishkin Senior Student MSK_APP(UUDD+UUEE+UUWW)
Maxim Kalalenskiy Student 2 UUWW_TWR!!!
Maxim Khromtsov Controller MSK_APP(UUEE+UUDD+UUWW)
Mihail Mihailov Senior Student MSK_APP(UUEE+UUWW+UUDD)
Nikita Filatov Student UUWW_GND
Nikita Ivlev Student 2 UUDD_TWR, UUEE_APP*, UUEE_F_APP*, UUEE_DEP*
Nikita Khomich Student UUEE_GND, UUEE_S_GND, UUEE_N_GND
Nikita Kuhtenkov Student UUEE_TWR*, UUEE_N_TWR*, UUEE_S_TWR*, UUEE_S_GND, UUEE_N_GND, UUEE_GND
Nikita Levin Senior Student MSK_APP(UUEE+UUDD+UUWW)
Oleg Alov Controller UUDD_DEP, UUDD_APP, UUDD_F_APP, UUEE_F_APP, UUEE_APP, UUEE_DEP, UUWW_APP, UUWW_F_APP, UUWW_DEP
Pavel Moskvin Student 2 UUEE_DEP*, UUEE_APP*, UUEE_F_APP*
Pavel Sergienko Student 2 UUML_TWR
Petr Efimov Student UUEE_GND, UUEE_S_GND, UUEE_N_GND
Petr Koreshkov Student UUEE_GND, UUEE_N_GND, UUEE_S_GND
Rustam Kilichev Student UUEE_S_GND, UUEE_N_GND, UUEE_GND
Sergey Isaev Student 2 MSK_APP(UUEE+UUWW+UUDD)
Sergey Milyaev Student UUDD_GND
Stanley Yorke Controller UUBW_APP, UUWW_DEP, UUWW_F_APP, UUWW_APP
Yury Kompaniychenko Student 2 UUML_TWR!!!

Аэропорты РПИ

ICAO Город Название Погода
UUWW Москва Внуково UUWW 020600Z 12003MPS 2700 BR FEW015 OVC033 01/M01 Q1029 R24/290047 NOSIG
UUDD Москва Домодедово UUDD 020600Z 17001MPS 0150 0100E FZFG FEW013 M02/M03 Q1029 R14R/CLRD60 NOSIG
UUBW Москва Жуковский UUBW 020600Z 11003MPS 3400 BR BKN044 M01/M02 Q1030 R30/810250 NOSIG RMK QFE762
UUMU Москва Чкаловский
UUEE Москва Шереметьево UUEE 020600Z 07005MPS 3500 -SN BR OVC014 00/M01 Q1029 R06R/510140 R06C/510140 NOSIG
UUOB Белгород Белгород UUOB 020600Z 03004MPS CAVOK M02/M03 Q1024 R11/010070 NOSIG
UUBP Брянск Брянск
UUOO Воронеж Воронеж UUOO 020600Z 12002MPS CAVOK M05/M07 Q1028 R12/010060 NOSIG RMK QFE757
UUBI Иваново Иваново
UUBC Калуга Калуга UUBC 020600Z 09001MPS 1700 R31/1700U BR NSC M02/M02 Q1028 R31/810250 NOSIG RMK QFE754/1005
UUOK Курск Курск UUOK 020600Z 12002MPS 070V140 CAVOK M02/M06 Q1026 R12/090050 NOSIG RMK QFE751/1002
UUMO Москва Остафьево UUMO 020600Z 09003MPS 5000 BR BKN041 01/M01 Q1029 R25/750530 NOSIG RMK QFE756/1009
UWGG Нижний Новгород Стригино UWGG 020600Z 00000MPS 1800 R36R/1900U SN BR OVC004 M00/M00 Q1031 R36R/550140 NOSIG
UUDL Ярославль Туношна UUDL 020600Z 10001MPS 9999 -SN OVC018 M00/M02 Q1032 R23/590540 NOSIG RMK QFE765
UUMW Ватулино Ватулино
UUML Воскресенск Северка